This is the latest recevied weather packets stored in our database for station/object KC9Q. If no packets are shown the sender has not sent any weather packets the latest 10 day(s).
| Time | Temp. | Humidity | Pressure | Rain* | Wind** | Luminosity | Snow |
|---|---|---|---|---|---|---|---|
| 1777990926 | 16.11° C | 96% | 1008.4 hPa | 0 mm | - | 68 W/m² | - |
| 1777990624 | 16.11° C | 96% | 1008 hPa | 0 mm | - | 60 W/m² | - |
| 1777990016 | 16.11° C | 96% | 1007.6 hPa | 0 mm | - | 133 W/m² | - |
| 1777989714 | 16.11° C | 96% | 1007.8 hPa | 0 mm | - | 88 W/m² | - |
| 1777989410 | 16.11° C | 96% | 1008 hPa | 0.51 mm | - | 86 W/m² | - |
| 1777989107 | 15.56° C | 96% | 1007.7 hPa | 0.51 mm | - | 141 W/m² | - |
| 1777988802 | 15.56° C | 95% | 1007.8 hPa | 0.51 mm | - | 87 W/m² | - |
| 1777988500 | 15.56° C | 95% | 1007.9 hPa | 0.51 mm | - | 50 W/m² | - |
| 1777988197 | 15.56° C | 95% | 1008 hPa | 1.27 mm | - | 51 W/m² | - |
| 1777987893 | 15.56° C | 94% | 1008.1 hPa | 1.27 mm | - | 40 W/m² | - |
| 1777987589 | 15.56° C | 94% | 1008.4 hPa | 1.78 mm | - | 36 W/m² | - |
| 1777987287 | 15.56° C | 93% | 1008.6 hPa | 3.05 mm | - | 17 W/m² | - |
| 1777986983 | 15.56° C | 93% | 1008.7 hPa | 4.83 mm | - | 9 W/m² | - |
| 1777986681 | 15.56° C | 92% | 1008.4 hPa | 7.87 mm | - | 13 W/m² | - |
| 1777986379 | 15.56° C | 90% | 1008.1 hPa | 7.87 mm | - | 14 W/m² | - |
| 1777986078 | 16.11° C | 88% | 1008.3 hPa | 6.6 mm | - | 12 W/m² | - |
| 1777985774 | 16.67° C | 85% | 1008.5 hPa | 3.56 mm | - | 6 W/m² | - |
| 1777985471 | 16.67° C | 83% | 1008.4 hPa | 1.27 mm | - | 5 W/m² | - |
| 1777985167 | 16.67° C | 81% | 1008 hPa | 0.51 mm | - | 9 W/m² | - |
| 1777984863 | 16.67° C | 80% | 1007.6 hPa | 2.29 mm | - | 4 W/m² | - |
| 1777984560 | 17.22° C | 78% | 1007.5 hPa | 2.29 mm | - | 4 W/m² | - |
| 1777984256 | 17.78° C | 74% | 1007.4 hPa | 0.51 mm | - | 7 W/m² | - |
| 1777983953 | 17.78° C | 73% | 1007.5 hPa | 0 mm | - | 6 W/m² | - |
| 1777983650 | 17.78° C | 74% | 1007.4 hPa | 0 mm | - | 12 W/m² | - |
| 1777983347 | 17.78° C | 73% | 1007.5 hPa | 0 mm | - | 12 W/m² | - |
* Rain latest hour (hover to see other rain measurements)
** Current wind speed in m/s (hover to see current wind gust speed)